createdAt,value
2023-01-21T00:02:27.012Z,98298.12
2023-01-21T00:05:01.859Z,98294.57
2023-01-21T00:07:31.175Z,98296.98
2023-01-21T00:10:00.346Z,98298.90
2023-01-21T00:12:31.797Z,98295.89
2023-01-21T00:15:01.044Z,98295.06
2023-01-21T00:17:31.607Z,98293.39
2023-01-21T00:20:00.886Z,98300.48
2023-01-21T00:22:30.288Z,98301.84
2023-01-21T00:24:59.605Z,98303.98
2023-01-21T00:27:28.982Z,98303.16
2023-01-21T00:29:58.315Z,98311.34
2023-01-21T00:32:27.713Z,98310.75
2023-01-21T00:34:57.036Z,98315.39
2023-01-21T00:37:26.408Z,98312.89
2023-01-21T00:39:55.754Z,98317.53
2023-01-21T00:42:25.345Z,98318.30
2023-01-21T00:44:54.615Z,98322.11
2023-01-21T00:47:24.255Z,98324.25
2023-01-21T00:49:54.406Z,98316.06
2023-01-21T00:52:24.239Z,98313.83
2023-01-21T00:54:54.240Z,98311.36
2023-01-21T00:57:24.278Z,98310.27
2023-01-21T00:59:54.578Z,98309.45
2023-01-21T01:02:24.301Z,98311.59
2023-01-21T01:04:54.228Z,98310.77
2023-01-21T01:07:24.328Z,98301.98
2023-01-21T01:09:54.427Z,98308.27
2023-01-21T01:12:24.319Z,98307.39
2023-01-21T01:14:54.311Z,98309.30
2023-01-21T01:17:24.297Z,98312.20
2023-01-21T01:19:54.411Z,98315.25
2023-01-21T01:22:24.360Z,98318.20
2023-01-21T01:24:54.373Z,98312.16
2023-01-21T01:27:24.371Z,98314.06
2023-01-21T01:29:54.363Z,98305.59
2023-01-21T01:32:26.706Z,98297.09
2023-01-21T01:34:56.076Z,98297.63
2023-01-21T01:37:25.369Z,98305.82
2023-01-21T01:39:55.360Z,98306.63
2023-01-21T01:42:24.793Z,98301.94
2023-01-21T01:45:03.411Z,98301.63
2023-01-21T01:47:34.110Z,98285.46
2023-01-21T01:50:03.399Z,98287.42
2023-01-21T01:52:32.565Z,98288.47
2023-01-21T01:55:02.027Z,98285.46
2023-01-21T01:57:35.783Z,98282.45
2023-01-21T02:00:05.823Z,98279.95
2023-01-21T02:02:35.045Z,98281.03
2023-01-21T02:05:07.983Z,98280.18
2023-01-21T02:07:41.583Z,98272.59
2023-01-21T02:10:11.739Z,98278.09
2023-01-21T02:12:41.355Z,98270.51
2023-01-21T02:15:10.935Z,98269.19
2023-01-21T02:18:02.083Z,98274.16
2023-01-21T02:20:32.720Z,98278.30
2023-01-21T02:23:03.267Z,98276.98
2023-01-21T02:25:36.965Z,98280.05
2023-01-21T02:28:26.038Z,98287.75
2023-01-21T02:31:09.632Z,98292.97
2023-01-21T02:33:40.045Z,98285.66
2023-01-21T02:36:28.747Z,98284.08
2023-01-21T02:39:05.591Z,98274.58
2023-01-21T02:41:39.063Z,98267.30
2023-01-21T02:44:19.023Z,98271.90
2023-01-21T02:46:49.687Z,98264.52
2023-01-21T02:49:26.052Z,98252.70
2023-01-21T02:51:55.530Z,98254.06
2023-01-21T02:54:47.265Z,98249.69
2023-01-21T02:57:16.976Z,98241.22
2023-01-21T02:59:47.425Z,98239.86
2023-01-21T03:02:36.276Z,98241.77
2023-01-21T03:05:07.939Z,98238.18
2023-01-21T03:07:37.737Z,98235.45
2023-01-21T03:10:08.392Z,98241.99
2023-01-21T03:12:45.220Z,98243.90
2023-01-21T03:15:33.052Z,98241.41
2023-01-21T03:18:03.593Z,98237.85
2023-01-21T03:20:33.691Z,98232.63
2023-01-21T03:23:04.429Z,98244.39
2023-01-21T03:25:34.376Z,98240.30
2023-01-21T03:28:04.237Z,98247.36
2023-01-21T03:30:33.441Z,98244.89
2023-01-21T03:33:02.737Z,98241.84
2023-01-21T03:35:33.356Z,98243.75
2023-01-21T03:38:13.038Z,98243.47
2023-01-21T03:40:46.768Z,98246.77
2023-01-21T03:43:16.059Z,98257.45
2023-01-21T03:45:52.094Z,98252.86
2023-01-21T03:48:25.819Z,98251.27
2023-01-21T03:50:57.023Z,98259.73
2023-01-21T03:53:26.291Z,98260.88
2023-01-21T03:55:55.530Z,98272.98
2023-01-21T03:58:25.215Z,98277.41
2023-01-21T04:00:54.759Z,98275.27
2023-01-21T04:03:24.680Z,98276.68
2023-01-21T04:05:54.964Z,98274.23
2023-01-21T04:08:24.711Z,98269.58
2023-01-21T04:10:53.903Z,98271.41
2023-01-21T04:13:24.088Z,98269.77
2023-01-21T04:15:53.717Z,98276.30
2023-01-21T04:18:26.214Z,98273.27
2023-01-21T04:20:55.702Z,98272.94
2023-01-21T04:23:25.632Z,98279.22
2023-01-21T04:25:55.527Z,98271.80
2023-01-21T04:28:25.696Z,98270.98
2023-01-21T04:30:55.947Z,98281.08
2023-01-21T04:33:25.236Z,98266.33
2023-01-21T04:35:56.193Z,98281.08
2023-01-21T04:38:25.652Z,98281.34
2023-01-21T04:40:55.668Z,98270.42
2023-01-21T04:43:25.804Z,98279.37
2023-01-21T04:45:55.577Z,98277.70
2023-01-21T04:48:25.738Z,98274.46
2023-01-21T04:50:55.768Z,98274.16
2023-01-21T04:53:25.670Z,98268.95
2023-01-21T04:55:55.691Z,98265.09
2023-01-21T04:58:25.690Z,98261.54
2023-01-21T05:00:56.858Z,98259.84
2023-01-21T05:03:26.318Z,98255.21
2023-01-21T05:05:55.786Z,98245.34
2023-01-21T05:08:25.603Z,98251.61
2023-01-21T05:10:55.610Z,98253.48
2023-01-21T05:13:25.849Z,98238.20
2023-01-21T05:15:55.058Z,98235.19
2023-01-21T05:18:24.881Z,98238.43
2023-01-21T05:20:55.809Z,98216.99
2023-01-21T05:23:25.929Z,98227.72
2023-01-21T05:25:55.847Z,98225.77
2023-01-21T05:28:25.686Z,98228.22
2023-01-21T05:30:55.881Z,98225.49
2023-01-21T05:33:27.177Z,98222.12
2023-01-21T05:35:56.531Z,98219.16
2023-01-21T05:38:25.718Z,98224.03
2023-01-21T05:40:59.147Z,98214.70
2023-01-21T05:43:28.322Z,98203.23
2023-01-21T05:45:57.685Z,98201.87
2023-01-21T05:48:26.982Z,98195.80
2023-01-21T05:50:58.198Z,98202.02
2023-01-21T05:53:26.830Z,98206.11
2023-01-21T05:55:56.402Z,98205.02
2023-01-21T05:58:25.853Z,98190.23
2023-01-21T06:00:55.816Z,98191.01
2023-01-21T06:03:25.860Z,98191.81
2023-01-21T06:05:55.892Z,98189.09
2023-01-21T06:08:25.902Z,98195.31
2023-01-21T06:10:57.446Z,98189.27
2023-01-21T06:13:26.848Z,98188.13
2023-01-21T06:15:57.292Z,98176.12
2023-01-21T06:18:26.577Z,98183.98
2023-01-21T06:20:55.896Z,98188.57
2023-01-21T06:23:25.862Z,98191.02
2023-01-21T06:25:55.403Z,98183.92
2023-01-21T06:28:24.983Z,98173.23
2023-01-21T06:30:55.069Z,98166.38
2023-01-21T06:33:25.315Z,98157.31
2023-01-21T06:35:55.031Z,98155.73
2023-01-21T06:38:25.023Z,98147.50
2023-01-21T06:40:55.081Z,98144.17
2023-01-21T06:43:24.963Z,98139.50
2023-01-21T06:45:55.081Z,98133.77
2023-01-21T06:48:25.101Z,98130.98
2023-01-21T06:50:55.036Z,98124.17
2023-01-21T06:53:24.986Z,98107.77
2023-01-21T06:55:55.089Z,98098.77
2023-01-21T06:58:25.191Z,98093.80
2023-01-21T07:00:56.469Z,98086.45
2023-01-21T07:03:25.851Z,98084.49
2023-01-21T07:05:55.985Z,98081.17
2023-01-21T07:08:25.916Z,98073.72
2023-01-21T07:10:55.992Z,98072.13
2023-01-21T07:13:26.041Z,98060.95
2023-01-21T07:15:55.685Z,98051.36
2023-01-21T07:18:25.182Z,98042.59
2023-01-21T07:20:55.079Z,98039.27
2023-01-21T07:23:25.096Z,98032.91
2023-01-21T07:25:55.551Z,98059.38
2023-01-21T07:28:25.377Z,98057.73
2023-01-21T07:30:54.654Z,98050.61
2023-01-21T07:33:24.756Z,98054.91
2023-01-21T07:35:54.235Z,98050.23
2023-01-21T07:38:24.316Z,98047.23
2023-01-21T07:40:54.210Z,98054.81
2023-01-21T07:43:24.348Z,98048.19
2023-01-21T07:45:54.239Z,98049.55
2023-01-21T07:48:23.962Z,98053.91
2023-01-21T07:50:53.386Z,98039.81
2023-01-21T07:53:23.396Z,98048.09
2023-01-21T07:55:53.458Z,98059.48
2023-01-21T07:58:23.282Z,98056.75
2023-01-21T08:00:53.505Z,98047.16
2023-01-21T08:03:24.291Z,98052.88
2023-01-21T08:05:57.019Z,98044.11
2023-01-21T08:08:26.295Z,98039.73
2023-01-21T08:10:57.669Z,98039.97
2023-01-21T08:13:26.952Z,98046.67
2023-01-21T08:15:56.741Z,98055.72
2023-01-21T08:18:26.288Z,98054.30
2023-01-21T08:20:59.340Z,98050.47
2023-01-21T08:23:28.611Z,98049.88
2023-01-21T08:25:57.906Z,98049.59
2023-01-21T08:28:27.173Z,98053.62
2023-01-21T08:30:56.468Z,98053.62
2023-01-21T08:33:26.220Z,98056.30
2023-01-21T08:35:57.575Z,98054.62
2023-01-21T08:38:26.875Z,98049.66
2023-01-21T08:40:58.055Z,98051.02
2023-01-21T08:43:27.555Z,98052.10
2023-01-21T08:46:01.365Z,98050.69
2023-01-21T08:48:30.906Z,98054.72
2023-01-21T08:51:00.792Z,98050.63
2023-01-21T08:53:30.504Z,98052.76
2023-01-21T08:56:03.938Z,98052.16
2023-01-21T08:58:33.262Z,98053.52
2023-01-21T09:01:03.937Z,98044.25
2023-01-21T09:03:33.176Z,98052.64
2023-01-21T09:06:03.154Z,98046.63
2023-01-21T09:08:32.346Z,98043.86
2023-01-21T09:11:04.711Z,98032.66
2023-01-21T09:13:38.743Z,98024.74
2023-01-21T09:16:11.020Z,98023.61
2023-01-21T09:18:40.261Z,98014.62
2023-01-21T09:21:09.466Z,98001.77
2023-01-21T09:23:38.836Z,98006.94
2023-01-21T09:26:12.215Z,98003.91
2023-01-21T09:28:43.111Z,98003.63
2023-01-21T09:31:12.883Z,98000.02
2023-01-21T09:33:42.752Z,98003.28
2023-01-21T09:36:13.331Z,98004.33
2023-01-21T09:38:45.867Z,98003.77
2023-01-21T09:41:16.440Z,98003.99
2023-01-21T09:43:46.628Z,97997.13
2023-01-21T09:46:19.934Z,97996.53
2023-01-21T09:48:49.614Z,97990.55
2023-01-21T09:51:22.912Z,97983.19
2023-01-21T09:53:53.567Z,97980.12
2023-01-21T09:56:33.809Z,97971.39
2023-01-21T09:59:21.060Z,97968.07
2023-01-21T10:01:50.172Z,97975.92
2023-01-21T10:04:23.849Z,97973.45
2023-01-21T10:06:55.593Z,97975.89
2023-01-21T10:09:32.900Z,97970.91
2023-01-21T10:12:20.002Z,97967.36
2023-01-21T10:15:07.231Z,97974.16
2023-01-21T10:17:40.856Z,97976.00
2023-01-21T10:20:23.541Z,97968.61
2023-01-21T10:23:06.234Z,97969.45
2023-01-21T10:25:35.845Z,97970.76
2023-01-21T10:28:06.577Z,97976.48
2023-01-21T10:30:40.369Z,97963.64
2023-01-21T10:33:11.042Z,97957.92
2023-01-21T10:35:47.484Z,97949.98
2023-01-21T10:38:23.921Z,97943.72
2023-01-21T10:40:56.944Z,97940.19
2023-01-21T10:43:37.208Z,97940.95
2023-01-21T10:46:10.630Z,97931.37
2023-01-21T10:48:41.284Z,97934.09
2023-01-21T10:51:21.061Z,97938.17
2023-01-21T10:53:51.615Z,97943.33
2023-01-21T10:56:22.246Z,97946.27
2023-01-21T10:58:54.515Z,97940.83
2023-01-21T11:01:24.989Z,97947.88
2023-01-21T11:03:55.578Z,97950.61
2023-01-21T11:06:25.768Z,97959.81
2023-01-21T11:09:00.337Z,97953.27
2023-01-21T11:11:30.353Z,97948.05
2023-01-21T11:13:59.624Z,97956.75
2023-01-21T11:16:36.398Z,97956.47
2023-01-21T11:19:07.134Z,97961.59
2023-01-21T11:21:36.432Z,97963.48
2023-01-21T11:24:06.302Z,97958.05
2023-01-21T11:26:36.309Z,97949.61
2023-01-21T11:29:12.978Z,97943.31
2023-01-21T11:31:42.678Z,97931.33
2023-01-21T11:34:18.611Z,97942.75
2023-01-21T11:37:00.287Z,97936.48
2023-01-21T11:39:30.053Z,97947.88
2023-01-21T11:41:59.732Z,97956.28
2023-01-21T11:44:28.987Z,97963.30
2023-01-21T11:46:58.292Z,97960.84
2023-01-21T11:49:32.084Z,97957.27
2023-01-21T11:52:02.637Z,97965.96
2023-01-21T11:54:31.859Z,97967.32
2023-01-21T11:57:01.982Z,97967.86
2023-01-21T11:59:35.283Z,97964.86
2023-01-21T12:02:08.372Z,97951.48
2023-01-21T12:04:37.525Z,97948.77
2023-01-21T12:07:07.063Z,97939.25
2023-01-21T12:09:36.355Z,97948.00
2023-01-21T12:12:09.877Z,97967.92
2023-01-21T12:14:46.468Z,97982.72
2023-01-21T12:17:17.194Z,97977.37
2023-01-21T12:19:48.008Z,97977.27
2023-01-21T12:22:21.548Z,97986.97
2023-01-21T12:25:10.514Z,97986.01
2023-01-21T12:27:41.233Z,97984.00
2023-01-21T12:30:11.858Z,97989.08
2023-01-21T12:33:00.775Z,97990.61
2023-01-21T12:35:37.906Z,97983.69
2023-01-21T12:38:13.023Z,97970.53
2023-01-21T12:40:58.187Z,97961.16
2023-01-21T12:43:31.703Z,97971.13
2023-01-21T12:46:02.327Z,97966.37
2023-01-21T12:48:36.018Z,97970.31
2023-01-21T12:51:06.835Z,97971.23
2023-01-21T12:53:37.469Z,97982.56
2023-01-21T12:56:08.993Z,97966.08
2023-01-21T12:58:45.510Z,97931.89
2023-01-21T13:01:15.486Z,97908.28
2023-01-21T13:04:02.633Z,97868.91
2023-01-21T13:06:51.954Z,97840.11
2023-01-21T13:09:05.558Z,97867.72
2023-01-21T13:11:38.986Z,97875.70
2023-01-21T13:14:13.799Z,97855.89
2023-01-21T13:16:53.712Z,97848.88
2023-01-21T13:19:23.480Z,97846.23
2023-01-21T13:21:54.888Z,97838.91
2023-01-21T13:24:41.635Z,97822.63
2023-01-21T13:27:15.403Z,97824.58
2023-01-21T13:29:49.219Z,97817.84
2023-01-21T13:32:29.164Z,97827.72
2023-01-21T13:35:07.101Z,97868.94
2023-01-21T13:37:37.807Z,97904.47
2023-01-21T13:40:17.541Z,97924.19
2023-01-21T13:42:54.464Z,97922.66
2023-01-21T13:45:25.812Z,97935.56
2023-01-21T13:48:14.426Z,97923.36
2023-01-21T13:51:02.092Z,97923.16
2023-01-21T13:53:38.940Z,97942.03
2023-01-21T13:56:12.449Z,97971.84
2023-01-21T13:58:43.056Z,97988.53
2023-01-21T14:01:13.843Z,97994.61
2023-01-21T14:03:44.611Z,97984.83
2023-01-21T14:06:25.497Z,97970.70
2023-01-21T14:08:56.721Z,97958.69
2023-01-21T14:11:39.764Z,97954.84
2023-01-21T14:14:16.343Z,97939.52
2023-01-21T14:17:03.559Z,97929.96
2023-01-21T14:19:37.352Z,97926.11
2023-01-21T14:22:16.859Z,97918.46
2023-01-21T14:24:47.322Z,97926.92
2023-01-21T14:27:18.008Z,97939.75
2023-01-21T14:29:51.447Z,97927.95
2023-01-21T14:32:25.138Z,97933.95
2023-01-21T14:34:59.590Z,97929.58
2023-01-21T14:37:33.388Z,97914.81
2023-01-21T14:40:07.080Z,97912.08
2023-01-21T14:42:43.459Z,97908.53
2023-01-21T14:45:13.960Z,97911.80
2023-01-21T14:47:47.464Z,97900.86
2023-01-21T14:50:34.735Z,97891.03
2023-01-21T14:53:05.529Z,97898.64
2023-01-21T14:55:35.149Z,97922.38
2023-01-21T14:58:04.391Z,97931.89
2023-01-21T15:00:34.510Z,97941.68
2023-01-21T15:03:08.286Z,97943.59
2023-01-21T15:05:45.623Z,97947.41
2023-01-21T15:08:19.083Z,97939.73
2023-01-21T15:10:49.644Z,97944.09
2023-01-21T15:13:20.123Z,97942.42
2023-01-21T15:16:07.731Z,97935.09
2023-01-21T15:18:38.449Z,97926.87
2023-01-21T15:21:25.375Z,97938.88
2023-01-21T15:23:55.518Z,97941.37
2023-01-21T15:26:34.761Z,97942.73
2023-01-21T15:29:23.446Z,97933.50
2023-01-21T15:31:52.855Z,97920.70
2023-01-21T15:34:22.233Z,97905.73
2023-01-21T15:36:53.107Z,97906.31
2023-01-21T15:39:23.769Z,97913.72
2023-01-21T15:42:00.864Z,97916.48
2023-01-21T15:44:34.779Z,97914.06
2023-01-21T15:47:21.625Z,97906.72
2023-01-21T15:50:08.603Z,97900.48
2023-01-21T15:52:44.994Z,97904.34
2023-01-21T15:55:21.404Z,97898.91
2023-01-21T15:57:51.857Z,97885.05
2023-01-21T16:00:38.656Z,97883.72
2023-01-21T16:03:27.320Z,97875.56
2023-01-21T16:06:04.530Z,97875.31
2023-01-21T16:08:41.014Z,97878.08
2023-01-21T16:11:11.926Z,97881.66
2023-01-21T16:13:49.332Z,97878.44
2023-01-21T16:16:20.008Z,97876.59
2023-01-21T16:19:00.269Z,97863.23
2023-01-21T16:21:34.012Z,97852.34
2023-01-21T16:24:04.642Z,97852.34
2023-01-21T16:26:33.906Z,97856.38
2023-01-21T16:29:02.991Z,97849.80
2023-01-21T16:31:32.405Z,97846.25
2023-01-21T16:34:01.690Z,97838.84
2023-01-21T16:36:32.256Z,97839.39
2023-01-21T16:39:02.952Z,97838.57
2023-01-21T16:41:32.125Z,97816.13
2023-01-21T16:44:01.624Z,97814.48
2023-01-21T16:46:32.992Z,97792.06
2023-01-21T16:49:02.356Z,97781.69
2023-01-21T16:51:34.271Z,97792.86
2023-01-21T16:54:22.882Z,97793.13
2023-01-21T16:56:56.316Z,97779.73
2023-01-21T16:59:32.699Z,97761.44
2023-01-21T17:02:01.946Z,97761.44
2023-01-21T17:04:31.201Z,97767.96
2023-01-21T17:07:00.351Z,97768.23
2023-01-21T17:09:30.876Z,97779.41
2023-01-21T17:12:00.089Z,97802.61
2023-01-21T17:14:29.652Z,97780.19
2023-01-21T17:16:58.894Z,97787.30
2023-01-21T17:19:37.653Z,97778.28
2023-01-21T17:22:08.376Z,97770.34
2023-01-21T17:24:39.438Z,97766.80
2023-01-21T17:27:09.795Z,97760.76
2023-01-21T17:29:39.032Z,97749.27
2023-01-21T17:32:08.898Z,97741.08
2023-01-21T17:34:38.354Z,97735.89
2023-01-21T17:37:09.016Z,97733.68
2023-01-21T17:39:49.030Z,97719.48
2023-01-21T17:42:24.928Z,97713.45
2023-01-21T17:44:55.709Z,97709.37
2023-01-21T17:47:32.317Z,97704.70
2023-01-21T17:50:08.911Z,97705.49
2023-01-21T17:52:38.169Z,97702.22
2023-01-21T17:55:14.637Z,97707.11
2023-01-21T17:57:43.895Z,97701.38
2023-01-21T18:00:29.346Z,97695.92
2023-01-21T18:02:59.006Z,97688.52
2023-01-21T18:05:28.240Z,97669.13
2023-01-21T18:07:57.588Z,97669.94
2023-01-21T18:10:30.702Z,97659.00
2023-01-21T18:12:59.938Z,97652.70
2023-01-21T18:15:29.461Z,97647.77
2023-01-21T18:17:59.030Z,97649.97
2023-01-21T18:20:28.886Z,97640.67
2023-01-21T18:22:58.468Z,97634.95
2023-01-21T18:25:28.235Z,97625.09
2023-01-21T18:27:58.155Z,97615.00
2023-01-21T18:30:29.165Z,97621.25
2023-01-21T18:32:58.652Z,97613.86
2023-01-21T18:35:28.592Z,97609.55
2023-01-21T18:37:58.359Z,97600.54
2023-01-21T18:40:28.278Z,97587.47
2023-01-21T18:42:58.303Z,97572.73
2023-01-21T18:45:28.511Z,97569.52
2023-01-21T18:47:58.589Z,97553.98
2023-01-21T18:50:29.288Z,97551.80
2023-01-21T18:52:58.567Z,97535.19
2023-01-21T18:55:28.473Z,97530.30
2023-01-21T18:57:58.305Z,97518.30
2023-01-21T19:00:35.811Z,97516.40
2023-01-21T19:03:05.075Z,97513.98
2023-01-21T19:05:38.074Z,97509.08
2023-01-21T19:08:08.177Z,97491.11
2023-01-21T19:10:37.546Z,97485.12
2023-01-21T19:13:06.805Z,97480.75
2023-01-21T19:15:36.071Z,97471.50
2023-01-21T19:18:05.467Z,97463.03
2023-01-21T19:20:36.034Z,97453.20
2023-01-21T19:23:05.365Z,97454.31
2023-01-21T19:25:34.695Z,97446.10
2023-01-21T19:28:03.963Z,97443.08
2023-01-21T19:30:33.478Z,97431.89
2023-01-21T19:33:02.756Z,97422.89
2023-01-21T19:35:35.961Z,97421.78
2023-01-21T19:38:05.355Z,97415.52
2023-01-21T19:40:37.167Z,97414.15
2023-01-21T19:43:06.330Z,97406.22
2023-01-21T19:45:35.738Z,97404.84
2023-01-21T19:48:05.060Z,97402.41
2023-01-21T19:50:34.310Z,97403.77
2023-01-21T19:53:03.567Z,97402.41
2023-01-21T19:55:32.897Z,97409.23
2023-01-21T19:58:03.246Z,97396.95
2023-01-21T20:00:33.862Z,97401.04
2023-01-21T20:03:03.112Z,97391.19
2023-01-21T20:05:33.951Z,97393.11
2023-01-21T20:08:03.156Z,97380.00
2023-01-21T20:10:32.586Z,97370.19
2023-01-21T20:13:01.900Z,97371.26
2023-01-21T20:15:32.144Z,97375.91
2023-01-21T20:18:01.669Z,97366.34
2023-01-21T20:20:31.736Z,97372.36
2023-01-21T20:23:01.236Z,97373.72
2023-01-21T20:25:31.977Z,97370.17
2023-01-21T20:28:01.377Z,97366.60
2023-01-21T20:30:32.519Z,97358.15
2023-01-21T20:33:04.857Z,97353.23
2023-01-21T20:35:33.932Z,97346.97
2023-01-21T20:38:03.231Z,97332.77
2023-01-21T20:40:32.628Z,97325.39
2023-01-21T20:43:01.989Z,97308.20
2023-01-21T20:45:32.107Z,97302.75
2023-01-21T20:48:01.928Z,97303.84
2023-01-21T20:50:33.025Z,97303.00
2023-01-21T20:53:02.326Z,97310.92
2023-01-21T20:55:32.272Z,97302.99
2023-01-21T20:58:02.287Z,97307.08
2023-01-21T21:00:32.831Z,97292.09
2023-01-21T21:03:02.319Z,97296.45
2023-01-21T21:05:31.544Z,97297.00
2023-01-21T21:08:00.738Z,97297.00
2023-01-21T21:10:31.341Z,97296.70
2023-01-21T21:13:00.539Z,97290.19
2023-01-21T21:15:30.008Z,97280.89
2023-01-21T21:17:59.257Z,97276.24
2023-01-21T21:20:30.048Z,97267.80
2023-01-21T21:22:59.213Z,97269.16
2023-01-21T21:25:30.445Z,97265.87
2023-01-21T21:27:59.907Z,97257.97
2023-01-21T21:30:30.529Z,97268.59
2023-01-21T21:33:00.517Z,97279.25
2023-01-21T21:35:31.043Z,97281.16
2023-01-21T21:38:00.796Z,97290.98
2023-01-21T21:40:33.394Z,97291.78
2023-01-21T21:43:20.368Z,97295.61
2023-01-21T21:46:07.676Z,97289.34
2023-01-21T21:48:40.028Z,97284.95
2023-01-21T21:51:09.703Z,97284.95
2023-01-21T21:53:39.178Z,97281.41
2023-01-21T21:56:09.914Z,97286.61
2023-01-21T21:58:39.208Z,97287.70
2023-01-21T22:01:09.381Z,97279.52
2023-01-21T22:03:38.832Z,97278.73
2023-01-21T22:06:08.287Z,97272.17
2023-01-21T22:08:38.086Z,97268.36
2023-01-21T22:11:08.422Z,97272.20
2023-01-21T22:13:38.523Z,97269.75
2023-01-21T22:16:08.158Z,97265.41
2023-01-21T22:18:37.428Z,97252.84
2023-01-21T22:21:07.458Z,97257.50
2023-01-21T22:23:37.339Z,97248.50
2023-01-21T22:26:07.117Z,97254.00
2023-01-21T22:28:36.492Z,97250.73
2023-01-21T22:31:07.450Z,97250.73
2023-01-21T22:33:36.991Z,97246.64
2023-01-21T22:36:09.793Z,97240.34
2023-01-21T22:38:40.630Z,97234.87
2023-01-21T22:41:10.005Z,97235.17
2023-01-21T22:43:40.288Z,97231.07
2023-01-21T22:46:09.621Z,97232.98
2023-01-21T22:48:38.834Z,97233.80
2023-01-21T22:51:08.270Z,97224.24
2023-01-21T22:53:37.563Z,97229.16
2023-01-21T22:56:07.070Z,97232.70
2023-01-21T22:58:36.425Z,97230.78
2023-01-21T23:01:05.868Z,97235.72
2023-01-21T23:03:35.193Z,97239.27
2023-01-21T23:06:05.967Z,97238.45
2023-01-21T23:08:35.287Z,97240.08
2023-01-21T23:11:05.085Z,97239.53
2023-01-21T23:13:34.445Z,97239.27
2023-01-21T23:16:03.946Z,97243.91
2023-01-21T23:18:33.202Z,97247.72
2023-01-21T23:21:02.617Z,97247.72
2023-01-21T23:23:33.263Z,97250.18
2023-01-21T23:26:03.478Z,97253.47
2023-01-21T23:28:32.705Z,97250.17
2023-01-21T23:31:03.540Z,97259.19
2023-01-21T23:33:32.811Z,97260.81
2023-01-21T23:36:02.091Z,97267.11
2023-01-21T23:38:31.401Z,97270.36
2023-01-21T23:41:00.793Z,97272.02
2023-01-21T23:43:29.979Z,97277.22
2023-01-21T23:45:59.797Z,97272.02
2023-01-21T23:48:29.881Z,97267.10
2023-01-21T23:51:05.467Z,97270.64
2023-01-21T23:53:34.780Z,97272.01
2023-01-21T23:56:14.604Z,97274.44
2023-01-21T23:58:46.249Z,97274.70
